sensor_id;sensor_type;location;lat;lon;timestamp;P1;durP1;ratioP1;P2;durP2;ratioP2
36443;SDS011;24692;45.642;13.806;2023-04-07T00:00:19;15.03;;;8.97;;
36443;SDS011;24692;45.642;13.806;2023-04-07T00:02:45;17.37;;;9.00;;
36443;SDS011;24692;45.642;13.806;2023-04-07T00:05:11;22.20;;;9.27;;
36443;SDS011;24692;45.642;13.806;2023-04-07T00:07:36;13.97;;;8.57;;
36443;SDS011;24692;45.642;13.806;2023-04-07T00:10:02;16.87;;;8.83;;
36443;SDS011;24692;45.642;13.806;2023-04-07T00:12:28;16.77;;;9.30;;
36443;SDS011;24692;45.642;13.806;2023-04-07T00:14:53;15.37;;;8.77;;
36443;SDS011;24692;45.642;13.806;2023-04-07T00:17:19;19.77;;;8.73;;
36443;SDS011;24692;45.642;13.806;2023-04-07T00:19:45;14.47;;;8.43;;
36443;SDS011;24692;45.642;13.806;2023-04-07T00:22:10;14.77;;;8.77;;
36443;SDS011;24692;45.642;13.806;2023-04-07T00:24:36;15.80;;;8.87;;
36443;SDS011;24692;45.642;13.806;2023-04-07T00:27:02;18.07;;;9.13;;
36443;SDS011;24692;45.642;13.806;2023-04-07T00:29:27;15.50;;;8.37;;
36443;SDS011;24692;45.642;13.806;2023-04-07T00:31:53;16.77;;;9.10;;
36443;SDS011;24692;45.642;13.806;2023-04-07T00:34:19;13.87;;;8.73;;
36443;SDS011;24692;45.642;13.806;2023-04-07T00:36:44;15.67;;;9.13;;
36443;SDS011;24692;45.642;13.806;2023-04-07T00:39:15;16.20;;;8.33;;
36443;SDS011;24692;45.642;13.806;2023-04-07T00:41:45;18.77;;;8.90;;
36443;SDS011;24692;45.642;13.806;2023-04-07T00:44:11;16.57;;;9.93;;
36443;SDS011;24692;45.642;13.806;2023-04-07T00:46:38;15.60;;;9.03;;
36443;SDS011;24692;45.642;13.806;2023-04-07T00:49:04;16.83;;;9.07;;
36443;SDS011;24692;45.642;13.806;2023-04-07T00:51:30;14.30;;;8.90;;
36443;SDS011;24692;45.642;13.806;2023-04-07T00:53:56;15.67;;;8.57;;
36443;SDS011;24692;45.642;13.806;2023-04-07T00:56:23;15.33;;;8.40;;
36443;SDS011;24692;45.642;13.806;2023-04-07T00:58:48;16.67;;;8.80;;
36443;SDS011;24692;45.642;13.806;2023-04-07T01:01:15;14.97;;;9.10;;
36443;SDS011;24692;45.642;13.806;2023-04-07T01:03:51;15.77;;;8.83;;
36443;SDS011;24692;45.642;13.806;2023-04-07T01:06:23;16.10;;;9.27;;
36443;SDS011;24692;45.642;13.806;2023-04-07T01:11:45;20.57;;;10.50;;
36443;SDS011;24692;45.642;13.806;2023-04-07T01:14:21;18.00;;;9.23;;
36443;SDS011;24692;45.642;13.806;2023-04-07T01:16:49;18.07;;;8.77;;
36443;SDS011;24692;45.642;13.806;2023-04-07T01:22:05;18.03;;;9.50;;
36443;SDS011;24692;45.642;13.806;2023-04-07T01:30:20;17.83;;;9.53;;
36443;SDS011;24692;45.642;13.806;2023-04-07T01:32:49;15.17;;;9.20;;
36443;SDS011;24692;45.642;13.806;2023-04-07T01:35:17;17.67;;;9.50;;
36443;SDS011;24692;45.642;13.806;2023-04-07T01:37:43;16.40;;;9.20;;
36443;SDS011;24692;45.642;13.806;2023-04-07T01:40:12;16.43;;;8.43;;
36443;SDS011;24692;45.642;13.806;2023-04-07T01:42:40;14.63;;;8.67;;
36443;SDS011;24692;45.642;13.806;2023-04-07T01:45:07;16.37;;;8.93;;
36443;SDS011;24692;45.642;13.806;2023-04-07T01:47:34;14.93;;;8.47;;
36443;SDS011;24692;45.642;13.806;2023-04-07T01:50:04;16.33;;;9.00;;
36443;SDS011;24692;45.642;13.806;2023-04-07T01:52:33;17.20;;;9.63;;
36443;SDS011;24692;45.642;13.806;2023-04-07T01:55:00;15.67;;;8.43;;
36443;SDS011;24692;45.642;13.806;2023-04-07T01:57:29;14.10;;;8.67;;
36443;SDS011;24692;45.642;13.806;2023-04-07T01:59:55;15.97;;;8.87;;
36443;SDS011;24692;45.642;13.806;2023-04-07T02:02:21;15.77;;;9.20;;
36443;SDS011;24692;45.642;13.806;2023-04-07T02:07:20;19.77;;;10.40;;
36443;SDS011;24692;45.642;13.806;2023-04-07T02:10:08;16.20;;;9.37;;
36443;SDS011;24692;45.642;13.806;2023-04-07T02:12:37;16.13;;;8.87;;
36443;SDS011;24692;45.642;13.806;2023-04-07T02:15:05;17.47;;;9.73;;
36443;SDS011;24692;45.642;13.806;2023-04-07T02:17:37;17.10;;;9.40;;
36443;SDS011;24692;45.642;13.806;2023-04-07T02:20:05;21.93;;;10.13;;
36443;SDS011;24692;45.642;13.806;2023-04-07T02:22:33;23.00;;;10.10;;
36443;SDS011;24692;45.642;13.806;2023-04-07T02:24:59;17.57;;;9.97;;
36443;SDS011;24692;45.642;13.806;2023-04-07T02:27:25;16.50;;;9.47;;
36443;SDS011;24692;45.642;13.806;2023-04-07T02:29:51;17.30;;;10.17;;
36443;SDS011;24692;45.642;13.806;2023-04-07T02:32:16;17.70;;;10.13;;
36443;SDS011;24692;45.642;13.806;2023-04-07T02:34:42;17.53;;;10.60;;
36443;SDS011;24692;45.642;13.806;2023-04-07T02:37:08;20.67;;;10.23;;
36443;SDS011;24692;45.642;13.806;2023-04-07T02:39:33;21.30;;;10.67;;
36443;SDS011;24692;45.642;13.806;2023-04-07T02:41:59;19.17;;;9.50;;
36443;SDS011;24692;45.642;13.806;2023-04-07T02:44:25;19.37;;;9.87;;
36443;SDS011;24692;45.642;13.806;2023-04-07T02:46:50;18.37;;;9.67;;
36443;SDS011;24692;45.642;13.806;2023-04-07T02:49:16;15.83;;;9.10;;
36443;SDS011;24692;45.642;13.806;2023-04-07T02:51:41;19.77;;;10.03;;
36443;SDS011;24692;45.642;13.806;2023-04-07T02:54:07;18.70;;;10.53;;
36443;SDS011;24692;45.642;13.806;2023-04-07T02:56:33;17.00;;;9.20;;
36443;SDS011;24692;45.642;13.806;2023-04-07T02:58:58;21.10;;;10.83;;
36443;SDS011;24692;45.642;13.806;2023-04-07T03:01:24;17.20;;;9.63;;
36443;SDS011;24692;45.642;13.806;2023-04-07T03:03:51;16.93;;;9.80;;
36443;SDS011;24692;45.642;13.806;2023-04-07T03:06:17;15.87;;;9.97;;
36443;SDS011;24692;45.642;13.806;2023-04-07T03:08:42;18.30;;;10.47;;
36443;SDS011;24692;45.642;13.806;2023-04-07T03:11:08;18.87;;;10.60;;
36443;SDS011;24692;45.642;13.806;2023-04-07T03:13:34;19.13;;;10.70;;
36443;SDS011;24692;45.642;13.806;2023-04-07T03:15:59;20.43;;;11.30;;
36443;SDS011;24692;45.642;13.806;2023-04-07T03:18:25;21.27;;;11.83;;
36443;SDS011;24692;45.642;13.806;2023-04-07T03:20:51;18.80;;;10.67;;
36443;SDS011;24692;45.642;13.806;2023-04-07T03:23:17;19.57;;;9.60;;
36443;SDS011;24692;45.642;13.806;2023-04-07T03:25:43;16.83;;;9.90;;
36443;SDS011;24692;45.642;13.806;2023-04-07T03:28:08;19.53;;;10.40;;
36443;SDS011;24692;45.642;13.806;2023-04-07T03:30:34;18.20;;;11.37;;
36443;SDS011;24692;45.642;13.806;2023-04-07T03:33:00;16.33;;;10.37;;
36443;SDS011;24692;45.642;13.806;2023-04-07T03:35:26;17.13;;;9.73;;
36443;SDS011;24692;45.642;13.806;2023-04-07T03:37:52;18.90;;;10.77;;
36443;SDS011;24692;45.642;13.806;2023-04-07T03:40:18;20.90;;;11.27;;
36443;SDS011;24692;45.642;13.806;2023-04-07T03:42:44;17.33;;;10.60;;
36443;SDS011;24692;45.642;13.806;2023-04-07T03:45:10;22.13;;;12.20;;
36443;SDS011;24692;45.642;13.806;2023-04-07T03:47:36;27.10;;;11.30;;
36443;SDS011;24692;45.642;13.806;2023-04-07T03:50:02;18.63;;;11.03;;
36443;SDS011;24692;45.642;13.806;2023-04-07T03:52:27;23.13;;;12.20;;
36443;SDS011;24692;45.642;13.806;2023-04-07T03:54:53;18.50;;;11.60;;
36443;SDS011;24692;45.642;13.806;2023-04-07T03:57:19;19.77;;;11.73;;
36443;SDS011;24692;45.642;13.806;2023-04-07T03:59:45;17.00;;;10.43;;
36443;SDS011;24692;45.642;13.806;2023-04-07T04:02:15;19.57;;;10.83;;
36443;SDS011;24692;45.642;13.806;2023-04-07T04:04:45;19.90;;;10.60;;
36443;SDS011;24692;45.642;13.806;2023-04-07T04:07:22;22.10;;;11.73;;
36443;SDS011;24692;45.642;13.806;2023-04-07T04:09:53;22.97;;;11.53;;
36443;SDS011;24692;45.642;13.806;2023-04-07T04:12:20;17.73;;;11.00;;
36443;SDS011;24692;45.642;13.806;2023-04-07T04:14:46;19.27;;;11.80;;
36443;SDS011;24692;45.642;13.806;2023-04-07T04:17:14;20.67;;;11.87;;
36443;SDS011;24692;45.642;13.806;2023-04-07T04:19:43;19.33;;;11.27;;
36443;SDS011;24692;45.642;13.806;2023-04-07T04:22:09;19.90;;;12.17;;
36443;SDS011;24692;45.642;13.806;2023-04-07T04:24:35;19.60;;;11.63;;
36443;SDS011;24692;45.642;13.806;2023-04-07T04:27:06;19.50;;;11.67;;
36443;SDS011;24692;45.642;13.806;2023-04-07T04:29:37;17.40;;;10.87;;
36443;SDS011;24692;45.642;13.806;2023-04-07T04:32:03;20.23;;;11.27;;
36443;SDS011;24692;45.642;13.806;2023-04-07T04:34:31;20.30;;;10.60;;
36443;SDS011;24692;45.642;13.806;2023-04-07T04:37:07;22.83;;;11.67;;
36443;SDS011;24692;45.642;13.806;2023-04-07T04:39:36;19.47;;;10.43;;
36443;SDS011;24692;45.642;13.806;2023-04-07T04:42:05;16.20;;;10.23;;
36443;SDS011;24692;45.642;13.806;2023-04-07T04:44:32;18.87;;;10.87;;
36443;SDS011;24692;45.642;13.806;2023-04-07T04:46:58;21.83;;;12.00;;
36443;SDS011;24692;45.642;13.806;2023-04-07T04:49:25;19.50;;;12.40;;
36443;SDS011;24692;45.642;13.806;2023-04-07T04:51:51;22.17;;;12.60;;
36443;SDS011;24692;45.642;13.806;2023-04-07T04:54:17;19.33;;;11.63;;
36443;SDS011;24692;45.642;13.806;2023-04-07T04:56:44;22.80;;;12.83;;
36443;SDS011;24692;45.642;13.806;2023-04-07T04:59:13;24.13;;;13.30;;
36443;SDS011;24692;45.642;13.806;2023-04-07T05:01:39;23.17;;;13.73;;
36443;SDS011;24692;45.642;13.806;2023-04-07T05:04:06;23.03;;;12.60;;
36443;SDS011;24692;45.642;13.806;2023-04-07T05:06:35;21.90;;;12.83;;
36443;SDS011;24692;45.642;13.806;2023-04-07T05:09:01;24.47;;;15.00;;
36443;SDS011;24692;45.642;13.806;2023-04-07T05:11:27;26.80;;;13.63;;
36443;SDS011;24692;45.642;13.806;2023-04-07T05:13:55;31.80;;;13.57;;
36443;SDS011;24692;45.642;13.806;2023-04-07T05:16:23;25.83;;;13.37;;
36443;SDS011;24692;45.642;13.806;2023-04-07T05:18:48;22.70;;;13.03;;
36443;SDS011;24692;45.642;13.806;2023-04-07T05:21:14;20.53;;;11.90;;
36443;SDS011;24692;45.642;13.806;2023-04-07T05:23:40;25.47;;;12.37;;
36443;SDS011;24692;45.642;13.806;2023-04-07T05:26:05;21.90;;;12.63;;
36443;SDS011;24692;45.642;13.806;2023-04-07T05:28:31;21.93;;;12.63;;
36443;SDS011;24692;45.642;13.806;2023-04-07T05:30:57;20.07;;;11.57;;
36443;SDS011;24692;45.642;13.806;2023-04-07T05:33:22;18.97;;;11.70;;
36443;SDS011;24692;45.642;13.806;2023-04-07T05:35:48;21.30;;;11.73;;
36443;SDS011;24692;45.642;13.806;2023-04-07T05:38:14;25.83;;;12.03;;
36443;SDS011;24692;45.642;13.806;2023-04-07T05:40:41;21.27;;;11.53;;
36443;SDS011;24692;45.642;13.806;2023-04-07T05:43:06;24.97;;;12.80;;
36443;SDS011;24692;45.642;13.806;2023-04-07T05:45:32;21.03;;;11.43;;
36443;SDS011;24692;45.642;13.806;2023-04-07T05:47:58;22.40;;;11.93;;
36443;SDS011;24692;45.642;13.806;2023-04-07T05:50:23;28.83;;;11.63;;
36443;SDS011;24692;45.642;13.806;2023-04-07T05:52:49;18.43;;;11.13;;
36443;SDS011;24692;45.642;13.806;2023-04-07T05:55:15;20.20;;;10.57;;
36443;SDS011;24692;45.642;13.806;2023-04-07T05:57:41;20.73;;;10.33;;
36443;SDS011;24692;45.642;13.806;2023-04-07T06:00:06;22.00;;;11.13;;
36443;SDS011;24692;45.642;13.806;2023-04-07T06:02:33;17.53;;;10.03;;
36443;SDS011;24692;45.642;13.806;2023-04-07T06:04:59;20.37;;;10.90;;
36443;SDS011;24692;45.642;13.806;2023-04-07T06:07:25;23.17;;;11.13;;
36443;SDS011;24692;45.642;13.806;2023-04-07T06:09:51;17.67;;;10.23;;
36443;SDS011;24692;45.642;13.806;2023-04-07T06:12:16;22.87;;;10.93;;
36443;SDS011;24692;45.642;13.806;2023-04-07T06:14:45;19.23;;;10.47;;
36443;SDS011;24692;45.642;13.806;2023-04-07T06:17:15;24.43;;;12.13;;
36443;SDS011;24692;45.642;13.806;2023-04-07T06:19:41;17.57;;;9.57;;
36443;SDS011;24692;45.642;13.806;2023-04-07T06:22:06;15.73;;;9.73;;
36443;SDS011;24692;45.642;13.806;2023-04-07T06:24:32;21.73;;;10.90;;
36443;SDS011;24692;45.642;13.806;2023-04-07T06:26:57;20.30;;;11.10;;
36443;SDS011;24692;45.642;13.806;2023-04-07T06:29:25;20.33;;;11.27;;
36443;SDS011;24692;45.642;13.806;2023-04-07T06:31:51;18.57;;;9.97;;
36443;SDS011;24692;45.642;13.806;2023-04-07T06:34:17;16.97;;;9.87;;
36443;SDS011;24692;45.642;13.806;2023-04-07T06:36:42;18.30;;;10.40;;
36443;SDS011;24692;45.642;13.806;2023-04-07T06:39:08;17.27;;;10.17;;
36443;SDS011;24692;45.642;13.806;2023-04-07T06:41:34;20.93;;;10.27;;
36443;SDS011;24692;45.642;13.806;2023-04-07T06:44:00;17.83;;;9.50;;
36443;SDS011;24692;45.642;13.806;2023-04-07T06:46:26;25.50;;;10.47;;
36443;SDS011;24692;45.642;13.806;2023-04-07T06:48:52;19.87;;;11.03;;
36443;SDS011;24692;45.642;13.806;2023-04-07T06:51:18;22.83;;;12.93;;
36443;SDS011;24692;45.642;13.806;2023-04-07T06:53:43;20.27;;;12.40;;
36443;SDS011;24692;45.642;13.806;2023-04-07T06:56:11;24.27;;;12.37;;
36443;SDS011;24692;45.642;13.806;2023-04-07T06:58:37;21.77;;;12.07;;
36443;SDS011;24692;45.642;13.806;2023-04-07T07:01:03;16.77;;;10.93;;
36443;SDS011;24692;45.642;13.806;2023-04-07T07:03:30;13.40;;;8.43;;
36443;SDS011;24692;45.642;13.806;2023-04-07T07:05:56;14.70;;;8.87;;
36443;SDS011;24692;45.642;13.806;2023-04-07T07:08:25;21.60;;;9.13;;
36443;SDS011;24692;45.642;13.806;2023-04-07T07:10:51;13.93;;;8.60;;
36443;SDS011;24692;45.642;13.806;2023-04-07T07:13:18;14.27;;;8.90;;
36443;SDS011;24692;45.642;13.806;2023-04-07T07:15:47;16.00;;;9.13;;
36443;SDS011;24692;45.642;13.806;2023-04-07T07:18:13;14.97;;;9.20;;
36443;SDS011;24692;45.642;13.806;2023-04-07T07:20:39;16.57;;;9.50;;
36443;SDS011;24692;45.642;13.806;2023-04-07T07:23:05;18.70;;;10.00;;
36443;SDS011;24692;45.642;13.806;2023-04-07T07:25:30;18.20;;;10.33;;
36443;SDS011;24692;45.642;13.806;2023-04-07T07:27:56;16.83;;;9.23;;
36443;SDS011;24692;45.642;13.806;2023-04-07T07:30:22;14.60;;;8.67;;
36443;SDS011;24692;45.642;13.806;2023-04-07T07:32:48;14.73;;;9.43;;
36443;SDS011;24692;45.642;13.806;2023-04-07T07:35:14;17.17;;;9.87;;
36443;SDS011;24692;45.642;13.806;2023-04-07T07:37:40;18.73;;;10.13;;
36443;SDS011;24692;45.642;13.806;2023-04-07T07:40:08;18.53;;;9.73;;
36443;SDS011;24692;45.642;13.806;2023-04-07T07:42:34;15.57;;;8.93;;
36443;SDS011;24692;45.642;13.806;2023-04-07T07:45:00;18.47;;;9.00;;
36443;SDS011;24692;45.642;13.806;2023-04-07T07:47:26;16.37;;;8.70;;
36443;SDS011;24692;45.642;13.806;2023-04-07T07:49:52;15.17;;;9.07;;
36443;SDS011;24692;45.642;13.806;2023-04-07T07:52:17;15.30;;;9.23;;
36443;SDS011;24692;45.642;13.806;2023-04-07T07:54:44;16.17;;;9.47;;
36443;SDS011;24692;45.642;13.806;2023-04-07T07:57:10;16.37;;;8.60;;
36443;SDS011;24692;45.642;13.806;2023-04-07T07:59:36;16.70;;;9.27;;
36443;SDS011;24692;45.642;13.806;2023-04-07T08:02:02;14.98;;;9.35;;
36443;SDS011;24692;45.642;13.806;2023-04-07T08:04:28;16.85;;;10.27;;
36443;SDS011;24692;45.642;13.806;2023-04-07T08:06:54;19.75;;;10.00;;
36443;SDS011;24692;45.642;13.806;2023-04-07T08:09:20;18.92;;;10.75;;
36443;SDS011;24692;45.642;13.806;2023-04-07T08:11:46;16.42;;;10.70;;
36443;SDS011;24692;45.642;13.806;2023-04-07T08:14:15;18.05;;;10.10;;
36443;SDS011;24692;45.642;13.806;2023-04-07T08:16:41;14.23;;;9.70;;
36443;SDS011;24692;45.642;13.806;2023-04-07T08:19:07;19.83;;;11.00;;
36443;SDS011;24692;45.642;13.806;2023-04-07T08:21:33;22.50;;;10.63;;
36443;SDS011;24692;45.642;13.806;2023-04-07T08:23:59;18.05;;;10.18;;
36443;SDS011;24692;45.642;13.806;2023-04-07T08:26:25;20.67;;;11.93;;
36443;SDS011;24692;45.642;13.806;2023-04-07T08:28:51;19.75;;;11.93;;
36443;SDS011;24692;45.642;13.806;2023-04-07T08:31:17;23.95;;;12.40;;
36443;SDS011;24692;45.642;13.806;2023-04-07T08:33:43;18.20;;;11.77;;
36443;SDS011;24692;45.642;13.806;2023-04-07T08:36:09;21.80;;;12.10;;
36443;SDS011;24692;45.642;13.806;2023-04-07T08:38:35;16.90;;;11.98;;
36443;SDS011;24692;45.642;13.806;2023-04-07T08:41:06;20.50;;;13.02;;
36443;SDS011;24692;45.642;13.806;2023-04-07T08:43:35;20.73;;;12.82;;
36443;SDS011;24692;45.642;13.806;2023-04-07T08:46:03;19.92;;;12.95;;
36443;SDS011;24692;45.642;13.806;2023-04-07T08:48:30;22.58;;;13.02;;
36443;SDS011;24692;45.642;13.806;2023-04-07T08:51:03;19.08;;;13.15;;
36443;SDS011;24692;45.642;13.806;2023-04-07T08:53:44;19.75;;;13.10;;
36443;SDS011;24692;45.642;13.806;2023-04-07T08:56:15;21.02;;;13.20;;
36443;SDS011;24692;45.642;13.806;2023-04-07T08:58:42;28.63;;;14.52;;
36443;SDS011;24692;45.642;13.806;2023-04-07T09:01:09;20.98;;;14.23;;
36443;SDS011;24692;45.642;13.806;2023-04-07T09:03:37;24.17;;;14.40;;
36443;SDS011;24692;45.642;13.806;2023-04-07T09:06:02;18.95;;;14.27;;
36443;SDS011;24692;45.642;13.806;2023-04-07T09:08:28;22.40;;;15.07;;
36443;SDS011;24692;45.642;13.806;2023-04-07T09:10:57;19.38;;;14.88;;
36443;SDS011;24692;45.642;13.806;2023-04-07T09:13:23;18.98;;;14.23;;
36443;SDS011;24692;45.642;13.806;2023-04-07T09:15:49;18.80;;;13.43;;
36443;SDS011;24692;45.642;13.806;2023-04-07T09:18:15;21.73;;;15.20;;
36443;SDS011;24692;45.642;13.806;2023-04-07T09:20:57;22.23;;;14.82;;
36443;SDS011;24692;45.642;13.806;2023-04-07T09:25:54;20.15;;;14.10;;
36443;SDS011;24692;45.642;13.806;2023-04-07T09:28:20;24.05;;;15.63;;
36443;SDS011;24692;45.642;13.806;2023-04-07T09:30:53;23.38;;;14.38;;
36443;SDS011;24692;45.642;13.806;2023-04-07T09:33:28;21.05;;;14.88;;
36443;SDS011;24692;45.642;13.806;2023-04-07T09:35:54;25.00;;;16.05;;
36443;SDS011;24692;45.642;13.806;2023-04-07T09:38:20;22.05;;;15.93;;
36443;SDS011;24692;45.642;13.806;2023-04-07T09:40:47;24.35;;;16.50;;
36443;SDS011;24692;45.642;13.806;2023-04-07T09:43:14;22.75;;;16.60;;
36443;SDS011;24692;45.642;13.806;2023-04-07T09:45:41;24.63;;;15.02;;
36443;SDS011;24692;45.642;13.806;2023-04-07T09:48:07;21.25;;;15.43;;
36443;SDS011;24692;45.642;13.806;2023-04-07T09:50:42;23.98;;;16.02;;
36443;SDS011;24692;45.642;13.806;2023-04-07T09:53:13;23.73;;;16.77;;
36443;SDS011;24692;45.642;13.806;2023-04-07T09:55:40;20.10;;;15.43;;
36443;SDS011;24692;45.642;13.806;2023-04-07T09:58:07;24.63;;;17.00;;
36443;SDS011;24692;45.642;13.806;2023-04-07T10:00:36;25.40;;;17.42;;
36443;SDS011;24692;45.642;13.806;2023-04-07T10:03:02;24.67;;;17.75;;
36443;SDS011;24692;45.642;13.806;2023-04-07T10:05:28;25.20;;;16.38;;
36443;SDS011;24692;45.642;13.806;2023-04-07T10:07:55;27.63;;;16.63;;
36443;SDS011;24692;45.642;13.806;2023-04-07T10:10:21;28.20;;;18.35;;
36443;SDS011;24692;45.642;13.806;2023-04-07T10:12:46;26.88;;;16.35;;
36443;SDS011;24692;45.642;13.806;2023-04-07T10:15:16;26.00;;;18.58;;
36443;SDS011;24692;45.642;13.806;2023-04-07T10:17:45;25.27;;;17.70;;
36443;SDS011;24692;45.642;13.806;2023-04-07T10:20:12;24.30;;;16.85;;
36443;SDS011;24692;45.642;13.806;2023-04-07T10:22:42;28.23;;;16.85;;
36443;SDS011;24692;45.642;13.806;2023-04-07T10:25:11;24.05;;;16.33;;
36443;SDS011;24692;45.642;13.806;2023-04-07T10:27:46;27.10;;;17.48;;
36443;SDS011;24692;45.642;13.806;2023-04-07T10:30:33;23.48;;;17.25;;
36443;SDS011;24692;45.642;13.806;2023-04-07T10:33:00;26.23;;;17.65;;
36443;SDS011;24692;45.642;13.806;2023-04-07T10:35:26;23.50;;;16.73;;
36443;SDS011;24692;45.642;13.806;2023-04-07T10:40:40;25.38;;;16.73;;
36443;SDS011;24692;45.642;13.806;2023-04-07T10:43:07;21.85;;;15.82;;
36443;SDS011;24692;45.642;13.806;2023-04-07T10:48:10;24.33;;;17.02;;
36443;SDS011;24692;45.642;13.806;2023-04-07T10:50:37;23.33;;;15.90;;
36443;SDS011;24692;45.642;13.806;2023-04-07T10:53:10;24.88;;;17.25;;
36443;SDS011;24692;45.642;13.806;2023-04-07T10:55:37;25.07;;;16.50;;
36443;SDS011;24692;45.642;13.806;2023-04-07T10:58:12;25.98;;;16.42;;
36443;SDS011;24692;45.642;13.806;2023-04-07T11:00:38;27.02;;;16.95;;
36443;SDS011;24692;45.642;13.806;2023-04-07T11:03:12;24.77;;;17.47;;
36443;SDS011;24692;45.642;13.806;2023-04-07T11:05:38;24.33;;;17.23;;
36443;SDS011;24692;45.642;13.806;2023-04-07T11:08:04;23.93;;;16.40;;
36443;SDS011;24692;45.642;13.806;2023-04-07T11:10:31;25.40;;;17.77;;
36443;SDS011;24692;45.642;13.806;2023-04-07T11:13:05;25.25;;;17.73;;
36443;SDS011;24692;45.642;13.806;2023-04-07T11:15:33;24.90;;;18.15;;
36443;SDS011;24692;45.642;13.806;2023-04-07T11:20:39;26.23;;;18.37;;
36443;SDS011;24692;45.642;13.806;2023-04-07T11:23:06;25.20;;;17.23;;
36443;SDS011;24692;45.642;13.806;2023-04-07T11:25:49;27.70;;;17.75;;
36443;SDS011;24692;45.642;13.806;2023-04-07T11:28:16;27.38;;;18.73;;
36443;SDS011;24692;45.642;13.806;2023-04-07T11:30:46;25.90;;;18.83;;
36443;SDS011;24692;45.642;13.806;2023-04-07T11:33:16;26.73;;;19.73;;
36443;SDS011;24692;45.642;13.806;2023-04-07T11:35:50;25.83;;;19.13;;
36443;SDS011;24692;45.642;13.806;2023-04-07T11:38:24;26.80;;;18.87;;
36443;SDS011;24692;45.642;13.806;2023-04-07T11:40:51;23.57;;;17.40;;
36443;SDS011;24692;45.642;13.806;2023-04-07T11:43:21;23.70;;;17.37;;
36443;SDS011;24692;45.642;13.806;2023-04-07T11:46:04;26.10;;;17.20;;
36443;SDS011;24692;45.642;13.806;2023-04-07T11:48:35;29.37;;;17.40;;
36443;SDS011;24692;45.642;13.806;2023-04-07T11:51:02;21.67;;;16.07;;
36443;SDS011;24692;45.642;13.806;2023-04-07T11:53:28;24.20;;;17.10;;
36443;SDS011;24692;45.642;13.806;2023-04-07T11:56:03;22.43;;;15.67;;
36443;SDS011;24692;45.642;13.806;2023-04-07T11:58:31;24.10;;;16.43;;
36443;SDS011;24692;45.642;13.806;2023-04-07T12:00:57;25.07;;;16.33;;
36443;SDS011;24692;45.642;13.806;2023-04-07T12:03:27;23.50;;;15.40;;
36443;SDS011;24692;45.642;13.806;2023-04-07T12:05:53;22.90;;;15.67;;
36443;SDS011;24692;45.642;13.806;2023-04-07T12:08:19;22.33;;;14.77;;
36443;SDS011;24692;45.642;13.806;2023-04-07T12:10:45;26.23;;;15.47;;
36443;SDS011;24692;45.642;13.806;2023-04-07T12:13:12;24.33;;;15.27;;
36443;SDS011;24692;45.642;13.806;2023-04-07T12:15:38;22.40;;;14.87;;
36443;SDS011;24692;45.642;13.806;2023-04-07T12:18:04;21.33;;;13.97;;
36443;SDS011;24692;45.642;13.806;2023-04-07T12:20:30;23.80;;;13.97;;
36443;SDS011;24692;45.642;13.806;2023-04-07T12:22:56;22.27;;;13.87;;
36443;SDS011;24692;45.642;13.806;2023-04-07T12:25:23;19.97;;;13.57;;
36443;SDS011;24692;45.642;13.806;2023-04-07T12:27:50;19.43;;;13.20;;
36443;SDS011;24692;45.642;13.806;2023-04-07T12:30:15;21.00;;;13.87;;
36443;SDS011;24692;45.642;13.806;2023-04-07T12:32:41;19.07;;;13.40;;
36443;SDS011;24692;45.642;13.806;2023-04-07T12:35:07;22.53;;;14.07;;
36443;SDS011;24692;45.642;13.806;2023-04-07T12:37:32;19.47;;;13.27;;
36443;SDS011;24692;45.642;13.806;2023-04-07T12:39:58;18.57;;;13.37;;
36443;SDS011;24692;45.642;13.806;2023-04-07T12:42:24;19.80;;;12.50;;
36443;SDS011;24692;45.642;13.806;2023-04-07T12:44:50;21.20;;;13.10;;
36443;SDS011;24692;45.642;13.806;2023-04-07T12:47:15;19.43;;;13.27;;
36443;SDS011;24692;45.642;13.806;2023-04-07T12:49:41;19.83;;;13.27;;
36443;SDS011;24692;45.642;13.806;2023-04-07T12:52:07;17.93;;;13.17;;
36443;SDS011;24692;45.642;13.806;2023-04-07T12:54:32;18.37;;;13.80;;
36443;SDS011;24692;45.642;13.806;2023-04-07T12:56:59;18.80;;;13.83;;
36443;SDS011;24692;45.642;13.806;2023-04-07T12:59:24;18.60;;;13.53;;
36443;SDS011;24692;45.642;13.806;2023-04-07T13:01:50;20.23;;;13.47;;
36443;SDS011;24692;45.642;13.806;2023-04-07T13:04:17;18.33;;;13.00;;
36443;SDS011;24692;45.642;13.806;2023-04-07T13:06:42;18.80;;;14.00;;
36443;SDS011;24692;45.642;13.806;2023-04-07T13:09:08;20.43;;;14.60;;
36443;SDS011;24692;45.642;13.806;2023-04-07T13:11:34;22.30;;;13.63;;
36443;SDS011;24692;45.642;13.806;2023-04-07T13:14:00;18.10;;;13.57;;
36443;SDS011;24692;45.642;13.806;2023-04-07T13:16:26;22.00;;;14.77;;
36443;SDS011;24692;45.642;13.806;2023-04-07T13:18:52;18.13;;;13.17;;
36443;SDS011;24692;45.642;13.806;2023-04-07T13:21:18;20.23;;;14.40;;
36443;SDS011;24692;45.642;13.806;2023-04-07T13:23:44;22.02;;;14.75;;
36443;SDS011;24692;45.642;13.806;2023-04-07T13:26:10;21.40;;;14.60;;
36443;SDS011;24692;45.642;13.806;2023-04-07T13:28:36;23.70;;;15.32;;
36443;SDS011;24692;45.642;13.806;2023-04-07T13:31:02;20.10;;;14.43;;
36443;SDS011;24692;45.642;13.806;2023-04-07T13:33:27;21.03;;;15.57;;
36443;SDS011;24692;45.642;13.806;2023-04-07T13:35:53;29.63;;;16.33;;
36443;SDS011;24692;45.642;13.806;2023-04-07T13:38:18;23.80;;;15.27;;
36443;SDS011;24692;45.642;13.806;2023-04-07T13:40:44;22.73;;;14.50;;
36443;SDS011;24692;45.642;13.806;2023-04-07T13:43:13;23.10;;;15.17;;
36443;SDS011;24692;45.642;13.806;2023-04-07T13:45:39;24.27;;;15.07;;
36443;SDS011;24692;45.642;13.806;2023-04-07T13:48:05;21.17;;;14.70;;
36443;SDS011;24692;45.642;13.806;2023-04-07T13:50:31;20.53;;;14.70;;
36443;SDS011;24692;45.642;13.806;2023-04-07T13:52:56;20.00;;;14.53;;
36443;SDS011;24692;45.642;13.806;2023-04-07T13:55:22;19.60;;;14.60;;
36443;SDS011;24692;45.642;13.806;2023-04-07T13:57:48;23.20;;;15.43;;
36443;SDS011;24692;45.642;13.806;2023-04-07T14:00:13;25.07;;;15.67;;
36443;SDS011;24692;45.642;13.806;2023-04-07T14:02:39;21.57;;;14.57;;
36443;SDS011;24692;45.642;13.806;2023-04-07T14:05:05;23.23;;;15.13;;
36443;SDS011;24692;45.642;13.806;2023-04-07T14:07:31;21.90;;;14.53;;
36443;SDS011;24692;45.642;13.806;2023-04-07T14:09:57;21.10;;;14.80;;
36443;SDS011;24692;45.642;13.806;2023-04-07T14:12:22;23.97;;;15.07;;
36443;SDS011;24692;45.642;13.806;2023-04-07T14:14:48;25.57;;;15.77;;
36443;SDS011;24692;45.642;13.806;2023-04-07T14:17:18;21.57;;;15.07;;
36443;SDS011;24692;45.642;13.806;2023-04-07T14:19:44;23.73;;;15.03;;
36443;SDS011;24692;45.642;13.806;2023-04-07T14:22:10;23.07;;;15.10;;
36443;SDS011;24692;45.642;13.806;2023-04-07T14:24:37;23.57;;;15.27;;
36443;SDS011;24692;45.642;13.806;2023-04-07T14:27:03;28.30;;;15.57;;
36443;SDS011;24692;45.642;13.806;2023-04-07T14:29:29;27.67;;;15.83;;
36443;SDS011;24692;45.642;13.806;2023-04-07T14:31:55;25.50;;;16.47;;
36443;SDS011;24692;45.642;13.806;2023-04-07T14:34:21;25.30;;;16.63;;